Time;durP1;ratioP1;P1;durP2;ratioP2;P2;SDS_P1;SDS_P2;PMS_P1;PMS_P2;Temp;Humidity;BMP_temperature;BMP_pressure;BME280_temperature;BME280_humidity;BME280_pressure;Samples;Min_cycle;Max_cycle;Signal;HPM_P1;HPM_P2
2021/09/21 00:00:10;;;;;;;;;7.00;6.00;;;;;28.27;35.40;100916.59;146609;560;45019;-70
2021/09/21 00:02:44;;;;;;;;;6.00;6.00;;;;;28.24;35.63;100920.19;146602;592;46010;-69
2021/09/21 00:05:18;;;;;;;;;7.50;5.00;;;;;28.22;35.43;100918.47;146605;565;46019;-69
2021/09/21 00:07:52;;;;;;;;;7.25;5.00;;;;;28.21;35.36;100916.72;146603;569;46018;-69
2021/09/21 00:10:26;;;;;;;;;8.50;5.50;;;;;28.18;35.70;100912.31;146608;652;46024;-69
2021/09/21 00:13:02;;;;;;;;;5.50;5.00;;;;;28.15;35.61;100911.50;146607;633;46010;-70
2021/09/21 00:15:36;;;;;;;;;8.25;7.75;;;;;28.11;35.25;100912.47;146605;685;46018;-70
2021/09/21 00:18:10;;;;;;;;;7.00;5.25;;;;;28.07;35.62;100915.19;146605;640;46027;-70
2021/09/21 00:20:44;;;;;;;;;7.67;5.67;;;;;28.07;35.53;100924.97;146606;669;46019;-70
2021/09/21 00:23:18;;;;;;;;;5.00;5.00;;;;;28.02;35.91;100919.72;146609;581;45854;-70
2021/09/21 00:25:52;;;;;;;;;5.50;5.50;;;;;27.96;35.72;100925.16;146609;597;46018;-70
2021/09/21 00:28:26;;;;;;;;;6.67;5.33;;;;;27.93;35.90;100929.66;146608;564;46018;-71
2021/09/21 00:31:07;;;;;;;;;6.75;6.50;;;;;27.89;35.44;100926.16;146609;569;45028;-72
2021/09/21 00:33:54;;;;;;;;;4.25;4.25;;;;;27.87;35.92;100926.19;146605;586;47010;-71
2021/09/21 00:36:27;;;;;;;;;6.00;5.00;;;;;27.87;35.56;100935.97;146605;569;47010;-71
2021/09/21 00:39:01;;;;;;;;;5.00;5.00;;;;;27.83;35.64;100931.59;146607;595;46010;-71
2021/09/21 00:41:36;;;;;;;;;6.67;6.00;;;;;27.77;35.96;100943.25;146608;571;46018;-69
2021/09/21 00:44:11;;;;;;;;;6.50;6.25;;;;;27.68;36.35;100930.03;146608;707;46010;-70
2021/09/21 00:46:45;;;;;;;;;5.00;5.00;;;;;27.62;36.25;100928.34;146607;569;46018;-69
2021/09/21 00:49:20;;;;;;;;;6.33;6.00;;;;;27.59;36.72;100928.37;146609;579;45909;-69
2021/09/21 00:51:54;;;;;;;;;7.33;6.33;;;;;27.57;36.30;100934.63;146606;653;46018;-69
2021/09/21 00:54:28;;;;;;;;;8.00;7.33;;;;;27.59;36.52;100923.06;146605;566;46018;-69
2021/09/21 00:57:03;;;;;;;;;8.75;6.25;;;;;27.61;36.09;100918.59;146606;582;45020;-70
2021/09/21 00:59:37;;;;;;;;;7.67;6.00;;;;;27.61;36.49;100923.91;146608;574;46029;-70
2021/09/21 01:02:11;;;;;;;;;5.00;5.00;;;;;27.61;36.58;100917.72;146610;664;45018;-70
2021/09/21 01:04:45;;;;;;;;;9.50;5.50;;;;;27.58;36.95;100912.44;146605;566;46011;-70
2021/09/21 01:07:19;;;;;;;;;7.00;6.50;;;;;27.49;36.52;100910.78;146607;652;46018;-70
2021/09/21 01:09:53;;;;;;;;;8.25;5.75;;;;;27.41;36.60;100915.34;146606;718;46018;-69
2021/09/21 01:12:27;;;;;;;;;7.75;6.75;;;;;27.34;37.28;100911.91;146606;656;46010;-70
2021/09/21 01:15:13;;;;;;;;;6.67;6.67;;;;;27.30;36.92;100909.31;146608;592;46010;-70
2021/09/21 01:17:47;;;;;;;;;5.50;5.25;;;;;27.27;37.14;100910.25;146606;655;46008;-69
2021/09/21 01:20:22;;;;;;;;;6.75;6.00;;;;;27.28;36.88;100911.13;146605;607;46019;-69
2021/09/21 01:22:56;;;;;;;;;5.50;5.50;;;;;27.29;36.87;100912.88;146606;631;46018;-70
2021/09/21 01:25:30;;;;;;;;;5.75;5.25;;;;;27.32;37.16;100913.72;146606;568;45909;-70
2021/09/21 01:28:05;;;;;;;;;5.67;5.67;;;;;27.35;36.56;100907.44;146610;601;46019;-69
2021/09/21 01:30:39;;;;;;;;;7.25;6.25;;;;;27.36;36.66;100914.56;146601;563;46010;-70
2021/09/21 01:33:12;;;;;;;;;7.00;5.00;;;;;27.36;36.83;100901.25;146608;700;46018;-71
2021/09/21 01:35:46;;;;;;;;;5.75;5.00;;;;;27.38;36.84;100916.31;146607;577;46019;-70
2021/09/21 01:38:20;;;;;;;;;8.50;7.75;;;;;27.38;36.67;100907.41;146608;658;46008;-68
2021/09/21 01:40:54;;;;;;;;;6.33;6.33;;;;;27.36;36.90;100909.22;146604;613;46027;-70
2021/09/21 01:43:28;;;;;;;;;6.50;6.50;;;;;27.35;36.79;100907.44;146606;588;46018;-68
2021/09/21 01:46:02;;;;;;;;;10.75;9.50;;;;;27.32;36.54;100907.50;146605;632;46018;-69
2021/09/21 01:48:36;;;;;;;;;5.00;5.00;;;;;27.28;36.85;100909.31;146606;608;46018;-68
2021/09/21 01:51:12;;;;;;;;;5.25;5.00;;;;;27.20;36.94;100916.56;146604;581;47909;-70
2021/09/21 01:53:58;;;;;;;;;7.50;6.50;;;;;27.13;36.98;100905.09;146605;619;46018;-70
2021/09/21 01:59:24;;;;;;;;;7.00;5.25;;;;;26.97;37.30;100889.34;146609;678;46008;-70
2021/09/21 02:02:02;;;;;;;;;5.50;4.50;;;;;26.86;37.48;100903.69;146604;603;46018;-70
2021/09/21 02:04:35;;;;;;;;;8.50;8.50;;;;;26.76;37.59;100896.72;146601;687;47008;-70
2021/09/21 02:07:09;;;;;;;;;6.67;5.33;;;;;26.66;37.97;100905.69;146603;569;47010;-70
2021/09/21 02:09:43;;;;;;;;;9.25;7.50;;;;;26.57;38.00;100896.03;146609;612;46008;-69
2021/09/21 02:12:17;;;;;;;;;7.00;6.00;;;;;26.49;38.00;100895.28;146605;585;46010;-69
2021/09/21 02:14:51;;;;;;;;;8.75;7.75;;;;;26.41;38.27;100894.44;146608;566;46023;-69
2021/09/21 02:17:26;;;;;;;;;7.00;5.00;;;;;26.30;38.56;100896.34;146606;584;46018;-69
2021/09/21 02:19:59;;;;;;;;;6.00;6.00;;;;;26.17;39.49;100900.91;146610;612;46008;-72
2021/09/21 02:22:33;;;;;;;;;7.00;5.75;;;;;25.99;39.15;100897.53;146606;640;46018;-72
2021/09/21 02:25:08;;;;;;;;;7.00;7.00;;;;;25.88;39.19;100896.75;146609;579;46008;-68
2021/09/21 02:27:42;;;;;;;;;6.25;5.00;;;;;25.75;39.86;100892.41;146603;596;47010;-69
2021/09/21 02:30:17;;;;;;;;;10.25;7.00;;;;;25.66;39.43;100903.09;146607;626;46010;-70
2021/09/21 02:32:50;;;;;;;;;6.50;6.00;;;;;25.60;39.59;100919.09;146604;585;46019;-69
2021/09/21 02:35:25;;;;;;;;;8.33;8.00;;;;;25.54;40.01;100912.91;146608;599;46018;-68
2021/09/21 02:37:59;;;;;;;;;7.67;7.67;;;;;25.49;40.22;100919.19;146606;563;46010;-68
2021/09/21 02:40:33;;;;;;;;;9.50;8.00;;;;;25.41;39.96;100932.47;146606;573;46018;-69
2021/09/21 02:43:07;;;;;;;;;5.67;5.67;;;;;25.38;40.34;100923.66;146606;607;46021;-72
2021/09/21 02:45:41;;;;;;;;;8.00;8.00;;;;;25.38;40.35;100939.59;146608;565;46008;-72
2021/09/21 02:48:16;;;;;;;;;8.00;7.00;;;;;25.34;40.71;100930.78;146605;609;46019;-71
2021/09/21 02:50:50;;;;;;;;;7.50;7.25;;;;;25.31;40.83;100936.09;146609;594;46018;-71
2021/09/21 02:53:25;;;;;;;;;8.67;8.67;;;;;25.23;40.97;100943.22;146607;587;46010;-73
2021/09/21 02:55:59;;;;;;;;;7.00;6.50;;;;;25.15;41.14;100947.69;146607;622;46008;-73
2021/09/21 02:58:33;;;;;;;;;9.50;7.25;;;;;25.05;40.94;100926.47;146605;585;46023;-73
2021/09/21 03:01:07;;;;;;;;;7.50;7.25;;;;;25.01;41.16;100937.97;146606;585;46018;-74
2021/09/21 03:03:48;;;;;;;;;9.00;8.00;;;;;24.94;41.31;100928.28;146604;627;46019;-73
2021/09/21 03:06:30;;;;;;;;;5.50;5.00;;;;;24.86;41.50;100931.00;146605;653;46018;-73
2021/09/21 03:09:14;;;;;;;;;6.00;5.33;;;;;24.76;41.55;100929.25;146602;590;46018;-73
2021/09/21 03:11:54;;;;;;;;;7.50;6.25;;;;;24.75;41.32;100931.91;146606;600;46018;-72
2021/09/21 03:17:26;;;;;;;;;10.00;9.00;;;;;24.79;41.21;100931.87;146608;622;47008;-71
2021/09/21 03:20:01;;;;;;;;;8.33;7.33;;;;;24.77;41.23;100924.84;146606;586;46019;-72
2021/09/21 03:22:34;;;;;;;;;5.75;5.75;;;;;24.74;41.15;100933.69;146605;598;46012;-70
2021/09/21 03:25:11;;;;;;;;;11.00;8.00;;;;;24.73;41.78;100938.97;146605;606;46019;-69
2021/09/21 03:27:45;;;;;;;;;9.00;5.67;;;;;24.66;42.12;100935.47;146609;580;46018;-70
2021/09/21 03:30:19;;;;;;;;;7.25;6.75;;;;;24.57;41.71;100940.81;146605;679;46010;-69
2021/09/21 03:32:53;;;;;;;;;7.00;6.50;;;;;24.51;41.84;100939.03;146610;607;45026;-69
2021/09/21 03:35:27;;;;;;;;;6.00;6.00;;;;;24.51;42.22;100943.47;146609;613;47010;-69
2021/09/21 03:38:01;;;;;;;;;7.25;7.00;;;;;24.43;42.57;100941.72;146604;579;47012;-69
2021/09/21 03:40:35;;;;;;;;;8.00;5.67;;;;;24.35;42.37;100934.63;146607;584;46019;-69
2021/09/21 03:43:09;;;;;;;;;6.00;6.00;;;;;24.30;42.16;100942.63;146608;622;46018;-70
2021/09/21 03:45:43;;;;;;;;;6.25;5.25;;;;;24.28;42.53;100944.38;146604;591;46010;-67
2021/09/21 03:48:17;;;;;;;;;8.50;5.75;;;;;24.23;42.34;100937.31;146607;602;46018;-68
2021/09/21 03:50:51;;;;;;;;;7.00;7.00;;;;;24.22;42.70;100947.03;146604;647;46018;-68
2021/09/21 03:53:25;;;;;;;;;8.25;6.25;;;;;24.19;42.91;100947.91;146606;673;46018;-68
2021/09/21 03:55:59;;;;;;;;;8.50;7.00;;;;;24.14;42.78;100941.75;146603;663;46019;-68
2021/09/21 03:58:32;;;;;;;;;6.00;6.00;;;;;24.11;42.76;100944.41;146606;608;46018;-68
2021/09/21 04:01:07;;;;;;;;;10.00;9.25;;;;;24.12;42.49;100950.56;146606;686;46010;-67
2021/09/21 04:03:40;;;;;;;;;8.25;6.50;;;;;24.13;42.78;100936.44;146606;652;46018;-67
2021/09/21 04:06:14;;;;;;;;;7.75;6.50;;;;;24.13;42.80;100944.38;146604;715;46018;-66
2021/09/21 04:08:48;;;;;;;;;9.50;7.00;;;;;24.12;42.36;100955.87;146608;569;46008;-66
2021/09/21 04:11:27;;;;;;;;;7.50;6.25;;;;;24.12;43.25;100970.00;146605;615;46010;-66
2021/09/21 04:14:01;;;;;;;;;7.50;7.50;;;;;24.12;42.79;100974.44;146608;715;46018;-67
2021/09/21 04:16:36;;;;;;;;;9.25;8.00;;;;;24.11;43.46;100981.50;146602;663;47022;-66
2021/09/21 04:19:10;;;;;;;;;13.00;6.75;;;;;24.08;43.44;100983.22;146605;566;46019;-66
2021/09/21 04:21:44;;;;;;;;;11.00;6.75;;;;;24.04;43.46;100992.94;146602;643;46018;-66
2021/09/21 04:24:17;;;;;;;;;8.75;8.75;;;;;24.00;43.44;100991.19;146606;671;46018;-65
2021/09/21 04:26:51;;;;;;;;;8.25;7.00;;;;;24.00;43.11;100993.84;146605;678;46023;-68
2021/09/21 04:29:25;;;;;;;;;9.00;8.25;;;;;24.00;43.41;100995.63;146609;563;46016;-68
2021/09/21 04:32:03;;;;;;;;;8.00;7.25;;;;;24.00;43.09;100993.84;146608;644;45032;-68
2021/09/21 04:34:37;;;;;;;;;6.50;6.00;;;;;24.04;43.62;100992.06;146608;673;46018;-69
2021/09/21 04:37:11;;;;;;;;;7.25;6.25;;;;;24.08;43.36;101005.34;146605;645;47010;-69
2021/09/21 04:39:45;;;;;;;;;10.00;8.25;;;;;24.15;42.92;100998.28;146604;577;46019;-69
2021/09/21 04:42:22;;;;;;;;;10.50;6.50;;;;;24.22;42.92;100992.06;146602;570;46018;-69
2021/09/21 04:44:56;;;;;;;;;9.00;8.00;;;;;24.31;42.89;100999.13;146608;576;46018;-69
2021/09/21 04:47:30;;;;;;;;;8.25;8.25;;;;;24.38;43.52;101000.88;146605;592;46019;-69
2021/09/21 04:50:04;;;;;;;;;11.50;10.25;;;;;24.39;42.75;100995.59;146608;631;46018;-70
2021/09/21 04:52:38;;;;;;;;;10.75;9.25;;;;;24.45;42.69;100993.84;146606;613;47010;-69
2021/09/21 04:55:13;;;;;;;;;8.75;7.75;;;;;24.54;43.52;101001.78;146606;645;46019;-69
2021/09/21 04:57:47;;;;;;;;;7.50;7.25;;;;;24.56;42.87;100995.59;146605;613;46908;-69
2021/09/21 05:00:21;;;;;;;;;6.75;6.75;;;;;24.59;42.43;101005.31;146609;565;46010;-68
2021/09/21 05:02:55;;;;;;;;;10.25;9.25;;;;;24.64;42.96;101003.53;146608;647;46010;-68
2021/09/21 05:05:29;;;;;;;;;10.00;8.00;;;;;24.68;42.83;101001.78;146603;569;46018;-68
2021/09/21 05:08:03;;;;;;;;;9.00;8.25;;;;;24.70;43.11;101003.50;146601;564;47020;-68
2021/09/21 05:10:37;;;;;;;;;11.50;10.00;;;;;24.78;43.12;100996.44;146608;726;46008;-71
2021/09/21 05:13:10;;;;;;;;;13.50;10.25;;;;;24.99;42.53;100999.91;146607;587;46020;-71
2021/09/21 05:15:45;;;;;;;;;11.00;9.50;;;;;25.39;41.85;100997.09;146607;570;46018;-69
2021/09/21 05:18:19;;;;;;;;;9.75;8.25;;;;;25.95;42.19;101010.06;146605;602;46012;-69
2021/09/21 05:20:53;;;;;;;;;9.75;7.75;;;;;26.53;40.37;101015.78;146608;700;46018;-75
2021/09/21 05:23:27;;;;;;;;;11.67;7.67;;;;;27.08;38.89;101025.84;146608;576;46018;-67
2021/09/21 05:26:01;;;;;;;;;5.25;5.25;;;;;27.51;38.87;101022.63;146607;668;45041;-70
2021/09/21 05:28:34;;;;;;;;;5.33;5.33;;;;;27.84;37.88;101026.63;146607;571;46018;-75
2021/09/21 05:31:08;;;;;;;;;7.00;6.00;;;;;28.11;36.82;101032.44;146607;583;46019;-67
2021/09/21 05:33:42;;;;;;;;;6.50;5.75;;;;;28.27;37.33;101032.12;146606;586;47021;-66
2021/09/21 05:36:16;;;;;;;;;6.00;4.00;;;;;28.45;35.53;101036.31;146611;652;46018;-67
2021/09/21 05:38:50;;;;;;;;;5.00;4.67;;;;;28.54;35.63;101032.63;146604;627;47010;-67
2021/09/21 05:41:24;;;;;;;;;8.00;4.25;;;;;28.54;35.26;101030.81;146608;633;45024;-67
2021/09/21 05:43:58;;;;;;;;;5.00;4.75;;;;;28.51;36.47;101028.22;146608;723;46010;-66
2021/09/21 05:46:32;;;;;;;;;4.33;4.33;;;;;28.48;36.67;101024.72;146609;608;46018;-67
2021/09/21 05:49:06;;;;;;;;;5.00;4.00;;;;;28.37;36.25;101024.84;146606;615;47010;-67
2021/09/21 05:51:40;;;;;;;;;5.67;4.33;;;;;28.22;36.43;101030.44;146608;590;46018;-67
2021/09/21 05:54:14;;;;;;;;;6.50;6.50;;;;;28.12;36.96;101037.72;146604;637;47909;-66
2021/09/21 05:56:48;;;;;;;;;8.00;6.00;;;;;28.09;36.21;101027.09;146609;601;45020;-66
2021/09/21 05:59:22;;;;;;;;;4.00;4.00;;;;;28.16;36.47;101030.56;146605;569;46010;-66
2021/09/21 06:01:56;;;;;;;;;7.00;6.25;;;;;28.29;36.90;101026.81;146605;693;46019;-66
2021/09/21 06:04:30;;;;;;;;;6.00;5.00;;;;;28.44;36.68;101031.91;146604;646;46018;-66
2021/09/21 06:07:04;;;;;;;;;7.00;5.00;;;;;27.80;36.19;100894.34;146608;589;46018;-66
2021/09/21 06:09:38;;;;;;;;;8.33;5.00;;;;;28.63;36.67;101027.09;146604;598;47909;-67
2021/09/21 06:12:12;;;;;;;;;8.33;6.00;;;;;28.67;36.79;101038.59;146608;611;46018;-69
2021/09/21 06:14:46;;;;;;;;;5.75;5.75;;;;;28.72;37.33;101050.03;146604;623;46018;-68
2021/09/21 06:17:20;;;;;;;;;7.33;5.00;;;;;28.72;36.73;101052.72;146608;600;47008;-68
2021/09/21 06:19:53;;;;;;;;;7.00;6.25;;;;;28.71;36.32;101050.97;146604;626;46018;-68
2021/09/21 06:22:27;;;;;;;;;7.50;6.00;;;;;28.71;36.21;101056.31;146606;572;46018;-68
2021/09/21 06:25:01;;;;;;;;;5.50;4.00;;;;;28.77;36.21;101066.88;146607;633;46018;-67
2021/09/21 06:27:35;;;;;;;;;7.75;6.00;;;;;28.81;36.39;101068.56;146607;679;46018;-67
2021/09/21 06:30:12;;;;;;;;;6.67;6.67;;;;;28.83;36.11;101063.22;146605;645;46018;-68
2021/09/21 06:32:46;;;;;;;;;7.00;6.00;;;;;28.89;36.43;101071.97;146610;627;45043;-68
2021/09/21 06:35:21;;;;;;;;;6.00;6.00;;;;;29.06;36.69;101076.12;146606;628;46999;-68
2021/09/21 06:37:54;;;;;;;;;6.00;6.00;;;;;29.32;35.59;101075.62;146608;571;46019;-67
2021/09/21 06:40:28;;;;;;;;;5.25;4.00;;;;;29.65;35.55;101068.69;146604;617;46018;-69
2021/09/21 06:43:02;;;;;;;;;8.00;5.75;;;;;29.98;34.99;101075.06;146608;626;46018;-68
2021/09/21 06:45:36;;;;;;;;;8.75;6.50;;;;;30.28;34.59;101072.59;146605;712;46011;-68
2021/09/21 06:48:11;;;;;;;;;6.33;6.00;;;;;30.54;33.77;101071.94;146606;586;46008;-68
2021/09/21 06:50:45;;;;;;;;;4.50;3.75;;;;;30.80;33.74;101079.31;146606;631;46018;-67
2021/09/21 06:53:19;;;;;;;;;7.75;6.00;;;;;30.91;33.23;101076.34;146606;569;46008;-68
2021/09/21 06:55:52;;;;;;;;;7.75;6.75;;;;;30.97;33.04;101081.53;146603;563;46018;-68
2021/09/21 06:58:26;;;;;;;;;6.67;4.67;;;;;31.03;33.03;101086.72;146607;651;47008;-67
2021/09/21 07:01:00;;;;;;;;;8.67;7.67;;;;;31.09;32.82;101096.34;146604;569;46019;-69
2021/09/21 07:03:34;;;;;;;;;5.00;4.00;;;;;31.14;32.41;101095.31;146609;648;45020;-68
2021/09/21 07:06:08;;;;;;;;;6.25;5.00;;;;;30.47;32.31;100974.00;146606;564;46018;-68
2021/09/21 07:08:42;;;;;;;;;7.00;7.00;;;;;31.28;32.25;101093.12;146607;669;46024;-69
2021/09/21 07:11:16;;;;;;;;;8.75;6.50;;;;;31.36;32.64;101103.66;146602;570;46018;-68
2021/09/21 07:13:50;;;;;;;;;8.50;5.75;;;;;31.45;32.87;101098.03;146606;614;46024;-68
2021/09/21 07:16:24;;;;;;;;;4.33;4.33;;;;;31.51;32.37;101113.03;146616;564;47010;-68
2021/09/21 07:18:58;;;;;;;;;6.67;5.00;;;;;30.87;32.59;100992.53;146608;573;47018;-68
2021/09/21 07:21:37;;;;;;;;;7.75;6.00;;;;;31.57;33.08;101107.50;146602;675;46020;-69
2021/09/21 07:24:11;;;;;;;;;5.67;5.67;;;;;31.61;32.63;101116.31;146609;571;46018;-68
2021/09/21 07:26:50;;;;;;;;;7.00;6.33;;;;;31.66;32.81;101109.91;146604;632;46018;-68
2021/09/21 07:29:24;;;;;;;;;5.00;4.33;;;;;31.74;32.57;101112.34;146608;623;46019;-69
2021/09/21 07:31:58;;;;;;;;;5.33;4.33;;;;;31.88;32.26;101117.31;146605;592;46019;-68
2021/09/21 07:34:31;;;;;;;;;4.33;3.00;;;;;32.05;30.24;101127.53;146607;577;46919;-69
2021/09/21 07:37:05;;;;;;;;;4.00;3.33;;;;;32.14;30.89;101132.59;146604;564;47011;-69
2021/09/21 07:39:41;;;;;;;;;5.25;5.00;;;;;32.09;31.42;101132.75;146606;577;46018;-69
2021/09/21 07:42:17;;;;;;;;;5.25;4.00;;;;;31.96;30.84;101129.59;146608;690;46010;-69
2021/09/21 07:44:53;;;;;;;;;6.00;5.00;;;;;31.86;31.98;101130.75;146607;564;46010;-69
2021/09/21 07:47:27;;;;;;;;;6.00;5.00;;;;;31.84;31.56;101140.66;146602;679;48021;-69
2021/09/21 07:50:00;;;;;;;;;6.00;5.00;;;;;31.81;32.18;101139.84;146608;654;46017;-69
2021/09/21 07:52:34;;;;;;;;;5.00;5.00;;;;;31.81;31.29;101127.34;146603;581;46019;-69
2021/09/21 07:55:08;;;;;;;;;7.00;7.00;;;;;31.89;32.08;101133.34;146606;572;46018;-69
2021/09/21 07:57:43;;;;;;;;;7.50;6.25;;;;;32.15;31.15;101139.72;146607;621;46010;-70
2021/09/21 08:00:24;;;;;;;;;6.50;6.00;;;;;32.37;31.05;101140.78;146607;569;46012;-69
2021/09/21 08:02:58;;;;;;;;;6.50;5.25;;;;;32.41;31.39;101142.44;146605;637;46018;-69
2021/09/21 08:05:33;;;;;;;;;7.00;5.50;;;;;32.49;31.24;101150.25;146603;669;46018;-71
2021/09/21 08:08:09;;;;;;;;;9.00;7.50;;;;;32.57;30.69;101167.00;146603;663;46019;-70
2021/09/21 08:10:42;;;;;;;;;8.75;7.75;;;;;32.60;31.32;101169.56;146608;570;46018;-69
2021/09/21 08:13:17;;;;;;;;;7.75;7.75;;;;;32.60;30.43;101163.34;146607;567;46010;-70
2021/09/21 08:15:50;;;;;;;;;7.75;7.00;;;;;32.57;31.14;101155.37;146606;600;46019;-69
2021/09/21 08:18:24;;;;;;;;;6.00;5.00;;;;;32.54;31.00;101156.34;146604;640;46018;-70
2021/09/21 08:20:58;;;;;;;;;7.00;5.75;;;;;32.54;30.15;101160.84;146608;617;46018;-70
2021/09/21 08:23:33;;;;;;;;;6.00;5.00;;;;;32.47;30.96;101160.19;146605;585;46019;-69
2021/09/21 08:26:07;;;;;;;;;4.75;4.75;;;;;32.41;30.77;101165.72;146607;624;46018;-70
2021/09/21 08:28:41;;;;;;;;;5.50;5.00;;;;;32.38;31.05;101163.13;146605;626;46018;-69
2021/09/21 08:31:14;;;;;;;;;7.75;5.50;;;;;32.36;30.99;101159.63;146603;578;46018;-69
2021/09/21 08:33:48;;;;;;;;;6.50;4.00;;;;;32.34;31.04;101161.50;146605;644;46018;-69
2021/09/21 08:36:22;;;;;;;;;7.75;7.00;;;;;32.30;31.37;101165.19;146608;587;46019;-71
2021/09/21 08:38:56;;;;;;;;;4.00;4.00;;;;;32.32;31.00;101166.00;146606;626;46010;-69
2021/09/21 08:41:30;;;;;;;;;6.50;5.00;;;;;32.46;31.15;101163.78;146608;581;46008;-69
2021/09/21 08:44:04;;;;;;;;;5.75;4.50;;;;;31.93;30.57;101043.84;146604;572;46019;-69
2021/09/21 08:46:38;;;;;;;;;5.75;4.50;;;;;32.89;30.46;101171.25;146605;594;47008;-70
2021/09/21 08:49:12;;;;;;;;;7.25;7.25;;;;;33.02;30.62;101169.09;146605;696;46018;-70
2021/09/21 08:51:46;;;;;;;;;5.25;5.25;;;;;33.01;31.30;101170.00;146608;569;46018;-69
2021/09/21 08:54:20;;;;;;;;;6.25;6.25;;;;;32.97;31.01;101179.09;146604;588;46024;-71
2021/09/21 08:56:56;;;;;;;;;5.33;5.33;;;;;33.00;31.40;101170.94;146606;564;46019;-70
2021/09/21 08:59:35;;;;;;;;;6.50;5.50;;;;;33.04;31.16;101177.94;146607;630;46022;-69
2021/09/21 09:02:14;;;;;;;;;7.50;5.00;;;;;32.95;30.96;101185.44;146606;575;46010;-70
2021/09/21 09:05:03;;;;;;;;;5.00;5.00;;;;;32.77;32.06;101179.75;146605;564;46018;-70
2021/09/21 09:07:39;;;;;;;;;7.75;5.50;;;;;32.57;32.08;101180.41;146607;679;46025;-70
2021/09/21 09:10:17;;;;;;;;;7.00;5.00;;;;;32.34;32.28;101191.88;146605;590;47010;-68
2021/09/21 09:12:52;;;;;;;;;7.75;5.75;;;;;32.17;32.07;101189.72;146608;636;46012;-69
2021/09/21 09:15:26;;;;;;;;;7.75;4.75;;;;;32.09;33.07;101191.78;146603;640;46018;-69
2021/09/21 09:18:05;;;;;;;;;6.00;5.75;;;;;32.01;33.22;101187.56;146607;624;46018;-69
2021/09/21 09:20:44;;;;;;;;;5.75;5.25;;;;;32.01;33.22;101193.81;146604;647;46019;-70
2021/09/21 09:23:18;;;;;;;;;6.75;5.75;;;;;32.09;33.39;101190.88;146605;695;46018;-69
2021/09/21 09:25:53;;;;;;;;;10.50;9.25;;;;;32.24;32.56;101186.84;146605;593;46018;-68
2021/09/21 09:28:31;;;;;;;;;4.75;4.00;;;;;32.35;30.67;101172.16;146608;646;46008;-70
2021/09/21 09:31:06;;;;;;;;;4.00;4.00;;;;;32.33;29.79;101165.09;146606;579;46018;-70
2021/09/21 09:33:43;;;;;;;;;8.33;6.33;;;;;32.22;29.95;101173.50;146610;661;46018;-69
2021/09/21 09:36:28;;;;;;;;;5.00;5.00;;;;;32.12;30.55;101172.00;146605;674;46019;-69
2021/09/21 09:39:06;;;;;;;;;6.00;4.00;;;;;32.06;31.10;101182.94;146611;628;46008;-69
2021/09/21 09:41:42;;;;;;;;;8.00;7.00;;;;;32.04;31.39;101176.75;146605;571;46018;-69
2021/09/21 09:44:18;;;;;;;;;5.00;3.75;;;;;32.07;31.33;101177.53;146604;707;46018;-69
2021/09/21 09:47:03;;;;;;;;;8.33;7.00;;;;;32.09;31.26;101175.69;146607;569;47012;-69
2021/09/21 09:49:47;;;;;;;;;5.75;5.00;;;;;32.16;31.20;101179.91;146605;645;46019;-69
2021/09/21 09:52:22;;;;;;;;;5.00;4.33;;;;;32.20;30.89;101169.97;146607;581;46018;-69
2021/09/21 09:54:56;;;;;;;;;5.00;4.75;;;;;32.22;31.46;101173.50;146606;658;46018;-70
2021/09/21 09:57:34;;;;;;;;;5.00;4.00;;;;;32.19;30.93;101178.94;146607;616;47010;-69
2021/09/21 10:00:08;;;;;;;;;4.33;3.67;;;;;32.10;31.24;101169.37;146606;582;46018;-70
2021/09/21 10:02:44;;;;;;;;;5.00;4.00;;;;;32.11;30.81;101179.16;146601;571;47018;-69
2021/09/21 10:05:18;;;;;;;;;4.50;4.50;;;;;32.09;30.91;101175.69;146608;721;46008;-69
2021/09/21 10:07:52;;;;;;;;;4.00;3.00;;;;;32.09;30.42;101162.25;146606;610;47022;-69
2021/09/21 10:10:26;;;;;;;;;6.00;4.00;;;;;32.18;29.87;101161.97;146609;580;46010;-70
2021/09/21 10:13:05;;;;;;;;;3.00;3.00;;;;;32.20;29.66;101168.16;146605;630;47010;-70
2021/09/21 10:15:39;;;;;;;;;4.75;4.75;;;;;32.20;30.06;101169.97;146605;569;46018;-69
2021/09/21 10:18:21;;;;;;;;;5.00;4.00;;;;;31.48;30.37;101041.66;146605;583;47010;-70
2021/09/21 10:21:07;;;;;;;;;5.00;4.00;;;;;32.19;29.37;101161.03;146609;581;46019;-70
2021/09/21 10:23:43;;;;;;;;;5.33;5.33;;;;;32.17;29.16;101170.94;146606;632;46020;-70
2021/09/21 10:26:25;;;;;;;;;7.67;5.00;;;;;32.13;30.07;101174.66;146609;639;46019;-69
2021/09/21 10:29:00;;;;;;;;;4.33;2.67;;;;;32.13;30.12;101163.91;146605;616;46029;-71
2021/09/21 10:31:35;;;;;;;;;4.67;3.67;;;;;32.17;29.84;101156.66;146607;563;46018;-70
2021/09/21 10:34:20;;;;;;;;;5.00;2.50;;;;;32.34;30.75;101148.94;146604;612;46018;-69
2021/09/21 10:36:56;;;;;;;;;5.50;4.00;;;;;32.71;29.78;101157.59;146608;574;46018;-70
2021/09/21 10:39:30;;;;;;;;;3.67;2.33;;;;;33.07;27.75;101152.78;146606;641;47010;-69
2021/09/21 10:42:07;;;;;;;;;6.00;4.00;;;;;33.32;28.29;101147.41;146606;576;46010;-69
2021/09/21 10:44:57;;;;;;;;;2.00;2.00;;;;;33.54;27.87;101150.19;146606;664;46030;-69
2021/09/21 10:47:43;;;;;;;;;4.75;3.75;;;;;33.77;28.45;101149.31;146607;597;46008;-70
2021/09/21 10:50:21;;;;;;;;;5.00;5.00;;;;;34.05;27.32;101148.28;146605;572;46010;-69
2021/09/21 10:53:07;;;;;;;;;4.75;4.00;;;;;34.38;27.66;101149.59;146606;569;46018;-70
2021/09/21 10:55:42;;;;;;;;;4.75;4.50;;;;;34.63;27.42;101143.22;146605;612;46018;-70
2021/09/21 10:58:23;;;;;;;;;5.75;3.00;;;;;34.91;27.12;101145.59;146608;574;46018;-70
2021/09/21 11:00:58;;;;;;;;;4.67;4.33;;;;;35.14;26.82;101141.91;146606;573;46018;-70
2021/09/21 11:03:36;;;;;;;;;3.50;2.50;;;;;34.60;26.15;101008.69;146605;691;46018;-70
2021/09/21 11:06:12;;;;;;;;;3.00;2.00;;;;;34.84;25.38;101022.91;146604;677;47021;-69
2021/09/21 11:08:46;;;;;;;;;4.00;3.33;;;;;35.57;25.14;101127.38;146607;610;46018;-70
2021/09/21 11:11:21;;;;;;;;;3.00;3.00;;;;;35.58;25.66;101120.19;146606;600;46022;-69
2021/09/21 11:13:55;;;;;;;;;3.00;3.00;;;;;35.65;25.15;101116.25;146610;621;46008;-69
2021/09/21 11:16:30;;;;;;;;;3.75;2.25;;;;;35.67;24.85;101105.38;146602;712;47020;-70
2021/09/21 11:19:05;;;;;;;;;5.00;4.75;;;;;35.67;25.74;101102.66;146608;643;46010;-70
2021/09/21 11:21:39;;;;;;;;;5.00;3.50;;;;;35.72;25.79;101098.81;146604;602;46018;-69
2021/09/21 11:24:13;;;;;;;;;2.67;2.33;;;;;35.76;25.06;101092.31;146609;575;46019;-69
2021/09/21 11:26:47;;;;;;;;;5.00;3.50;;;;;35.67;27.55;101091.88;146604;619;47010;-70
2021/09/21 11:29:20;;;;;;;;;5.25;4.25;;;;;35.44;28.14;101090.25;146606;642;47008;-70
2021/09/21 11:31:54;;;;;;;;;4.25;4.00;;;;;35.33;27.63;101090.75;146604;621;46018;-69
2021/09/21 11:34:33;;;;;;;;;5.75;4.00;;;;;35.32;27.88;101083.59;146607;634;45021;-70
2021/09/21 11:37:10;;;;;;;;;6.75;4.25;;;;;35.32;28.33;101084.47;146608;624;45022;-71
2021/09/21 11:39:45;;;;;;;;;5.00;4.00;;;;;35.31;28.62;101081.84;146610;572;45020;-71
2021/09/21 11:42:30;;;;;;;;;3.00;3.00;;;;;34.58;28.66;100954.03;146605;672;46010;-69
2021/09/21 11:45:13;;;;;;;;;5.75;4.50;;;;;35.03;29.19;101072.34;146607;601;47008;-70
2021/09/21 11:47:49;;;;;;;;;4.25;3.50;;;;;34.81;29.01;101075.09;146606;592;46909;-70
2021/09/21 11:50:30;;;;;;;;;3.50;3.50;;;;;34.62;29.20;101066.94;146608;644;46018;-70
2021/09/21 11:53:10;;;;;;;;;4.75;4.00;;;;;34.36;29.96;101062.62;146606;621;47908;-72
2021/09/21 11:55:46;;;;;;;;;5.00;5.00;;;;;33.78;30.52;101017.47;146608;641;46019;-71
2021/09/21 11:58:21;;;;;;;;;5.00;5.00;;;;;33.94;30.39;101063.47;146605;650;46018;-70
2021/09/21 12:00:57;;;;;;;;;8.00;5.00;;;;;33.94;30.68;101051.81;146606;638;46018;-71
2021/09/21 12:03:31;;;;;;;;;5.50;5.50;;;;;33.82;31.06;101050.50;146607;706;45022;-71
2021/09/21 12:06:05;;;;;;;;;4.33;4.00;;;;;33.64;30.63;101054.78;146607;569;46018;-71